sensor_id;sensor_type;location;lat;lon;timestamp;temperature;humidity
20171;DHT22;10245;51.344;6.620;2023-01-19T00:02:16;1.30;88.30
20171;DHT22;10245;51.344;6.620;2023-01-19T00:04:39;1.30;88.30
20171;DHT22;10245;51.344;6.620;2023-01-19T00:07:02;1.20;88.40
20171;DHT22;10245;51.344;6.620;2023-01-19T00:09:26;1.20;88.70
20171;DHT22;10245;51.344;6.620;2023-01-19T00:11:54;1.20;88.50
20171;DHT22;10245;51.344;6.620;2023-01-19T00:14:17;1.30;88.70
20171;DHT22;10245;51.344;6.620;2023-01-19T00:16:42;1.20;88.50
20171;DHT22;10245;51.344;6.620;2023-01-19T00:19:05;1.30;88.60
20171;DHT22;10245;51.344;6.620;2023-01-19T00:21:28;1.20;88.50
20171;DHT22;10245;51.344;6.620;2023-01-19T00:23:52;1.20;88.80
20171;DHT22;10245;51.344;6.620;2023-01-19T00:26:15;1.20;88.60
20171;DHT22;10245;51.344;6.620;2023-01-19T00:28:39;1.30;88.50
20171;DHT22;10245;51.344;6.620;2023-01-19T00:31:02;1.30;88.70
20171;DHT22;10245;51.344;6.620;2023-01-19T00:33:27;1.30;88.40
20171;DHT22;10245;51.344;6.620;2023-01-19T00:35:52;1.30;88.60
20171;DHT22;10245;51.344;6.620;2023-01-19T00:38:17;1.40;88.60
20171;DHT22;10245;51.344;6.620;2023-01-19T00:40:40;1.30;88.40
20171;DHT22;10245;51.344;6.620;2023-01-19T00:43:04;1.30;88.50
20171;DHT22;10245;51.344;6.620;2023-01-19T00:45:27;1.30;88.50
20171;DHT22;10245;51.344;6.620;2023-01-19T00:47:51;1.30;88.80
20171;DHT22;10245;51.344;6.620;2023-01-19T00:50:19;1.30;88.70
20171;DHT22;10245;51.344;6.620;2023-01-19T00:52:43;1.30;88.60
20171;DHT22;10245;51.344;6.620;2023-01-19T00:55:08;1.40;88.50
20171;DHT22;10245;51.344;6.620;2023-01-19T00:57:33;1.30;88.60
20171;DHT22;10245;51.344;6.620;2023-01-19T00:59:56;1.40;88.70
20171;DHT22;10245;51.344;6.620;2023-01-19T01:02:19;1.30;88.50
20171;DHT22;10245;51.344;6.620;2023-01-19T01:04:43;1.40;88.40
20171;DHT22;10245;51.344;6.620;2023-01-19T01:07:08;1.40;88.30
20171;DHT22;10245;51.344;6.620;2023-01-19T01:09:31;1.30;88.60
20171;DHT22;10245;51.344;6.620;2023-01-19T01:11:55;1.40;88.60
20171;DHT22;10245;51.344;6.620;2023-01-19T01:14:20;1.40;88.40
20171;DHT22;10245;51.344;6.620;2023-01-19T01:16:44;1.50;88.40
20171;DHT22;10245;51.344;6.620;2023-01-19T01:19:08;1.50;88.30
20171;DHT22;10245;51.344;6.620;2023-01-19T01:21:31;1.40;88.50
20171;DHT22;10245;51.344;6.620;2023-01-19T01:23:56;1.30;88.60
20171;DHT22;10245;51.344;6.620;2023-01-19T01:26:20;1.40;88.90
20171;DHT22;10245;51.344;6.620;2023-01-19T01:28:43;1.50;88.40
20171;DHT22;10245;51.344;6.620;2023-01-19T01:31:06;1.40;88.70
20171;DHT22;10245;51.344;6.620;2023-01-19T01:33:30;1.30;88.80
20171;DHT22;10245;51.344;6.620;2023-01-19T01:36:02;1.30;89.00
20171;DHT22;10245;51.344;6.620;2023-01-19T01:38:26;1.40;88.70
20171;DHT22;10245;51.344;6.620;2023-01-19T01:40:51;1.40;88.70
20171;DHT22;10245;51.344;6.620;2023-01-19T01:43:17;1.30;88.90
20171;DHT22;10245;51.344;6.620;2023-01-19T01:45:42;1.40;89.00
20171;DHT22;10245;51.344;6.620;2023-01-19T01:48:09;1.30;88.80
20171;DHT22;10245;51.344;6.620;2023-01-19T01:50:38;1.30;89.00
20171;DHT22;10245;51.344;6.620;2023-01-19T01:53:25;1.40;89.00
20171;DHT22;10245;51.344;6.620;2023-01-19T01:55:48;1.40;88.80
20171;DHT22;10245;51.344;6.620;2023-01-19T01:58:14;1.40;88.90
20171;DHT22;10245;51.344;6.620;2023-01-19T02:00:39;1.40;88.60
20171;DHT22;10245;51.344;6.620;2023-01-19T02:03:22;1.30;88.70
20171;DHT22;10245;51.344;6.620;2023-01-19T02:05:48;1.30;88.90
20171;DHT22;10245;51.344;6.620;2023-01-19T02:08:14;1.20;89.00
20171;DHT22;10245;51.344;6.620;2023-01-19T02:11:00;1.30;88.90
20171;DHT22;10245;51.344;6.620;2023-01-19T02:13:42;1.20;88.90
20171;DHT22;10245;51.344;6.620;2023-01-19T02:16:08;1.20;89.10
20171;DHT22;10245;51.344;6.620;2023-01-19T02:18:34;1.20;88.90
20171;DHT22;10245;51.344;6.620;2023-01-19T02:21:04;1.20;88.80
20171;DHT22;10245;51.344;6.620;2023-01-19T02:23:38;1.20;89.10
20171;DHT22;10245;51.344;6.620;2023-01-19T02:26:04;1.10;89.00
20171;DHT22;10245;51.344;6.620;2023-01-19T02:28:28;1.00;89.10
20171;DHT22;10245;51.344;6.620;2023-01-19T02:30:53;1.10;89.10
20171;DHT22;10245;51.344;6.620;2023-01-19T02:33:16;1.10;89.20
20171;DHT22;10245;51.344;6.620;2023-01-19T02:35:40;1.10;89.10
20171;DHT22;10245;51.344;6.620;2023-01-19T02:38:05;1.10;89.30
20171;DHT22;10245;51.344;6.620;2023-01-19T02:40:31;1.00;89.30
20171;DHT22;10245;51.344;6.620;2023-01-19T02:42:57;1.10;89.30
20171;DHT22;10245;51.344;6.620;2023-01-19T02:45:22;1.10;89.20
20171;DHT22;10245;51.344;6.620;2023-01-19T02:47:48;1.10;89.10
20171;DHT22;10245;51.344;6.620;2023-01-19T02:50:38;1.00;89.10
20171;DHT22;10245;51.344;6.620;2023-01-19T02:53:19;1.10;89.10
20171;DHT22;10245;51.344;6.620;2023-01-19T02:55:54;1.20;89.10
20171;DHT22;10245;51.344;6.620;2023-01-19T02:58:24;1.20;88.40
20171;DHT22;10245;51.344;6.620;2023-01-19T03:00:57;1.10;88.80
20171;DHT22;10245;51.344;6.620;2023-01-19T03:03:30;1.20;88.70
20171;DHT22;10245;51.344;6.620;2023-01-19T03:06:00;1.40;88.10
20171;DHT22;10245;51.344;6.620;2023-01-19T03:08:32;1.40;88.10
20171;DHT22;10245;51.344;6.620;2023-01-19T03:11:08;1.50;87.90
20171;DHT22;10245;51.344;6.620;2023-01-19T03:13:39;1.50;87.80
20171;DHT22;10245;51.344;6.620;2023-01-19T03:16:12;1.60;87.50
20171;DHT22;10245;51.344;6.620;2023-01-19T03:18:39;1.70;87.50
20171;DHT22;10245;51.344;6.620;2023-01-19T03:21:05;1.80;87.00
20171;DHT22;10245;51.344;6.620;2023-01-19T03:23:30;1.70;87.10
20171;DHT22;10245;51.344;6.620;2023-01-19T03:25:55;1.80;87.20
20171;DHT22;10245;51.344;6.620;2023-01-19T03:28:23;1.80;87.00
20171;DHT22;10245;51.344;6.620;2023-01-19T03:30:49;1.90;86.70
20171;DHT22;10245;51.344;6.620;2023-01-19T03:33:19;1.90;86.60
20171;DHT22;10245;51.344;6.620;2023-01-19T03:35:49;1.90;86.60
20171;DHT22;10245;51.344;6.620;2023-01-19T03:38:16;1.90;86.80
20171;DHT22;10245;51.344;6.620;2023-01-19T03:40:42;1.90;87.10
20171;DHT22;10245;51.344;6.620;2023-01-19T03:43:07;1.90;87.50
20171;DHT22;10245;51.344;6.620;2023-01-19T03:45:33;1.80;88.00
20171;DHT22;10245;51.344;6.620;2023-01-19T03:47:59;1.70;88.60
20171;DHT22;10245;51.344;6.620;2023-01-19T03:50:25;1.70;89.00
20171;DHT22;10245;51.344;6.620;2023-01-19T03:53:00;1.60;89.30
20171;DHT22;10245;51.344;6.620;2023-01-19T03:55:24;1.60;89.80
20171;DHT22;10245;51.344;6.620;2023-01-19T03:57:48;1.50;90.20
20171;DHT22;10245;51.344;6.620;2023-01-19T04:00:12;1.50;90.80
20171;DHT22;10245;51.344;6.620;2023-01-19T04:02:38;1.40;91.30
20171;DHT22;10245;51.344;6.620;2023-01-19T04:05:01;1.40;91.50
20171;DHT22;10245;51.344;6.620;2023-01-19T04:07:24;1.30;91.80
20171;DHT22;10245;51.344;6.620;2023-01-19T04:09:49;1.30;92.20
20171;DHT22;10245;51.344;6.620;2023-01-19T04:12:12;1.20;92.40
20171;DHT22;10245;51.344;6.620;2023-01-19T04:14:36;1.20;92.60
20171;DHT22;10245;51.344;6.620;2023-01-19T04:17:00;1.10;92.90
20171;DHT22;10245;51.344;6.620;2023-01-19T04:19:24;1.00;93.20
20171;DHT22;10245;51.344;6.620;2023-01-19T04:21:48;1.00;93.30
20171;DHT22;10245;51.344;6.620;2023-01-19T04:24:12;0.90;93.60
20171;DHT22;10245;51.344;6.620;2023-01-19T04:26:35;0.90;93.70
20171;DHT22;10245;51.344;6.620;2023-01-19T04:28:59;0.80;93.90
20171;DHT22;10245;51.344;6.620;2023-01-19T04:31:22;0.70;94.00
20171;DHT22;10245;51.344;6.620;2023-01-19T04:33:45;0.70;94.20
20171;DHT22;10245;51.344;6.620;2023-01-19T04:36:10;0.70;94.30
20171;DHT22;10245;51.344;6.620;2023-01-19T04:38:34;0.80;94.30
20171;DHT22;10245;51.344;6.620;2023-01-19T04:40:58;0.80;94.30
20171;DHT22;10245;51.344;6.620;2023-01-19T04:43:22;0.80;94.20
20171;DHT22;10245;51.344;6.620;2023-01-19T04:45:46;0.90;94.10
20171;DHT22;10245;51.344;6.620;2023-01-19T04:48:10;0.80;94.20
20171;DHT22;10245;51.344;6.620;2023-01-19T04:50:33;0.90;94.20
20171;DHT22;10245;51.344;6.620;2023-01-19T04:52:58;0.80;94.30
20171;DHT22;10245;51.344;6.620;2023-01-19T04:55:22;0.80;94.40
20171;DHT22;10245;51.344;6.620;2023-01-19T04:57:45;0.80;94.30
20171;DHT22;10245;51.344;6.620;2023-01-19T05:00:09;0.80;94.40
20171;DHT22;10245;51.344;6.620;2023-01-19T05:02:34;0.80;94.40
20171;DHT22;10245;51.344;6.620;2023-01-19T05:04:57;0.80;94.40
20171;DHT22;10245;51.344;6.620;2023-01-19T05:07:20;0.80;94.40
20171;DHT22;10245;51.344;6.620;2023-01-19T05:09:45;0.70;94.50
20171;DHT22;10245;51.344;6.620;2023-01-19T05:12:09;0.70;94.60
20171;DHT22;10245;51.344;6.620;2023-01-19T05:14:32;0.70;94.60
20171;DHT22;10245;51.344;6.620;2023-01-19T05:16:56;0.60;94.60
20171;DHT22;10245;51.344;6.620;2023-01-19T05:19:19;0.60;94.70
20171;DHT22;10245;51.344;6.620;2023-01-19T05:21:43;0.60;94.80
20171;DHT22;10245;51.344;6.620;2023-01-19T05:24:07;0.60;94.80
20171;DHT22;10245;51.344;6.620;2023-01-19T05:26:32;0.60;94.80
20171;DHT22;10245;51.344;6.620;2023-01-19T05:28:55;0.70;94.80
20171;DHT22;10245;51.344;6.620;2023-01-19T05:31:18;0.70;94.80
20171;DHT22;10245;51.344;6.620;2023-01-19T05:33:42;0.70;94.70
20171;DHT22;10245;51.344;6.620;2023-01-19T05:36:06;0.70;94.70
20171;DHT22;10245;51.344;6.620;2023-01-19T05:38:29;0.80;94.70
20171;DHT22;10245;51.344;6.620;2023-01-19T05:40:57;0.80;94.60
20171;DHT22;10245;51.344;6.620;2023-01-19T05:43:22;0.90;94.50
20171;DHT22;10245;51.344;6.620;2023-01-19T05:45:46;0.90;94.40
20171;DHT22;10245;51.344;6.620;2023-01-19T05:48:10;0.90;94.40
20171;DHT22;10245;51.344;6.620;2023-01-19T05:50:34;0.90;94.40
20171;DHT22;10245;51.344;6.620;2023-01-19T05:52:57;0.90;94.30
20171;DHT22;10245;51.344;6.620;2023-01-19T05:55:22;0.90;94.30
20171;DHT22;10245;51.344;6.620;2023-01-19T05:57:45;0.80;94.30
20171;DHT22;10245;51.344;6.620;2023-01-19T06:00:12;0.80;94.50
20171;DHT22;10245;51.344;6.620;2023-01-19T06:02:36;0.80;94.50
20171;DHT22;10245;51.344;6.620;2023-01-19T06:04:59;0.80;94.60
20171;DHT22;10245;51.344;6.620;2023-01-19T06:07:23;0.80;94.60
20171;DHT22;10245;51.344;6.620;2023-01-19T06:09:49;0.80;94.50
20171;DHT22;10245;51.344;6.620;2023-01-19T06:12:13;0.80;94.50
20171;DHT22;10245;51.344;6.620;2023-01-19T06:14:36;0.80;94.50
20171;DHT22;10245;51.344;6.620;2023-01-19T06:17:01;0.90;94.60
20171;DHT22;10245;51.344;6.620;2023-01-19T06:19:24;0.90;94.30
20171;DHT22;10245;51.344;6.620;2023-01-19T06:21:48;1.00;94.40
20171;DHT22;10245;51.344;6.620;2023-01-19T06:24:13;1.00;94.20
20171;DHT22;10245;51.344;6.620;2023-01-19T06:26:36;1.00;94.30
20171;DHT22;10245;51.344;6.620;2023-01-19T06:28:59;1.00;94.20
20171;DHT22;10245;51.344;6.620;2023-01-19T06:31:23;1.00;94.30
20171;DHT22;10245;51.344;6.620;2023-01-19T06:33:47;1.00;94.20
20171;DHT22;10245;51.344;6.620;2023-01-19T06:36:11;1.00;94.20
20171;DHT22;10245;51.344;6.620;2023-01-19T06:38:34;1.00;94.10
20171;DHT22;10245;51.344;6.620;2023-01-19T06:40:57;1.00;94.20
20171;DHT22;10245;51.344;6.620;2023-01-19T06:43:24;1.00;94.10
20171;DHT22;10245;51.344;6.620;2023-01-19T06:45:47;1.10;93.90
20171;DHT22;10245;51.344;6.620;2023-01-19T06:48:11;1.10;94.00
20171;DHT22;10245;51.344;6.620;2023-01-19T06:50:36;1.10;94.20
20171;DHT22;10245;51.344;6.620;2023-01-19T06:52:59;1.10;94.00
20171;DHT22;10245;51.344;6.620;2023-01-19T06:55:23;1.10;94.00
20171;DHT22;10245;51.344;6.620;2023-01-19T06:57:55;1.10;94.00
20171;DHT22;10245;51.344;6.620;2023-01-19T07:00:19;1.10;94.10
20171;DHT22;10245;51.344;6.620;2023-01-19T07:02:43;1.10;94.00
20171;DHT22;10245;51.344;6.620;2023-01-19T07:05:07;1.10;94.10
20171;DHT22;10245;51.344;6.620;2023-01-19T07:07:32;1.20;93.90
20171;DHT22;10245;51.344;6.620;2023-01-19T07:09:55;1.20;93.90
20171;DHT22;10245;51.344;6.620;2023-01-19T07:12:18;1.20;93.90
20171;DHT22;10245;51.344;6.620;2023-01-19T07:14:41;1.20;93.80
20171;DHT22;10245;51.344;6.620;2023-01-19T07:17:05;1.20;93.80
20171;DHT22;10245;51.344;6.620;2023-01-19T07:19:28;1.20;93.70
20171;DHT22;10245;51.344;6.620;2023-01-19T07:21:51;1.20;93.70
20171;DHT22;10245;51.344;6.620;2023-01-19T07:24:16;1.20;93.80
20171;DHT22;10245;51.344;6.620;2023-01-19T07:26:39;1.20;93.80
20171;DHT22;10245;51.344;6.620;2023-01-19T07:29:03;1.20;93.90
20171;DHT22;10245;51.344;6.620;2023-01-19T07:31:26;1.20;93.70
20171;DHT22;10245;51.344;6.620;2023-01-19T07:33:49;1.20;93.80
20171;DHT22;10245;51.344;6.620;2023-01-19T07:36:13;1.20;93.70
20171;DHT22;10245;51.344;6.620;2023-01-19T07:38:37;1.20;93.70
20171;DHT22;10245;51.344;6.620;2023-01-19T07:41:02;1.20;93.80
20171;DHT22;10245;51.344;6.620;2023-01-19T07:43:25;1.20;93.90
20171;DHT22;10245;51.344;6.620;2023-01-19T07:45:49;1.20;93.90
20171;DHT22;10245;51.344;6.620;2023-01-19T07:48:12;1.20;93.90
20171;DHT22;10245;51.344;6.620;2023-01-19T07:50:36;1.20;94.00
20171;DHT22;10245;51.344;6.620;2023-01-19T07:53:03;1.20;94.00
20171;DHT22;10245;51.344;6.620;2023-01-19T07:55:27;1.30;94.00
20171;DHT22;10245;51.344;6.620;2023-01-19T07:57:51;1.20;94.00
20171;DHT22;10245;51.344;6.620;2023-01-19T08:00:15;1.30;93.80
20171;DHT22;10245;51.344;6.620;2023-01-19T08:02:41;1.30;93.80
20171;DHT22;10245;51.344;6.620;2023-01-19T08:05:05;1.30;94.00
20171;DHT22;10245;51.344;6.620;2023-01-19T08:07:28;1.30;93.90
20171;DHT22;10245;51.344;6.620;2023-01-19T08:09:52;1.30;93.90
20171;DHT22;10245;51.344;6.620;2023-01-19T08:12:15;1.30;94.00
20171;DHT22;10245;51.344;6.620;2023-01-19T08:14:40;1.30;93.90
20171;DHT22;10245;51.344;6.620;2023-01-19T08:17:03;1.30;93.90
20171;DHT22;10245;51.344;6.620;2023-01-19T08:19:27;1.30;93.80
20171;DHT22;10245;51.344;6.620;2023-01-19T08:21:50;1.30;93.80
20171;DHT22;10245;51.344;6.620;2023-01-19T08:24:17;1.30;94.00
20171;DHT22;10245;51.344;6.620;2023-01-19T08:26:42;1.30;93.90
20171;DHT22;10245;51.344;6.620;2023-01-19T08:29:05;1.30;93.70
20171;DHT22;10245;51.344;6.620;2023-01-19T08:31:30;1.30;93.80
20171;DHT22;10245;51.344;6.620;2023-01-19T08:33:54;1.40;93.70
20171;DHT22;10245;51.344;6.620;2023-01-19T08:36:18;1.40;93.60
20171;DHT22;10245;51.344;6.620;2023-01-19T08:38:42;1.50;93.70
20171;DHT22;10245;51.344;6.620;2023-01-19T08:41:06;1.40;93.70
20171;DHT22;10245;51.344;6.620;2023-01-19T08:43:29;1.50;93.60
20171;DHT22;10245;51.344;6.620;2023-01-19T08:45:56;1.50;93.70
20171;DHT22;10245;51.344;6.620;2023-01-19T08:48:21;1.50;93.50
20171;DHT22;10245;51.344;6.620;2023-01-19T08:50:45;1.50;93.20
20171;DHT22;10245;51.344;6.620;2023-01-19T08:53:09;1.50;93.50
20171;DHT22;10245;51.344;6.620;2023-01-19T08:55:34;1.50;93.50
20171;DHT22;10245;51.344;6.620;2023-01-19T08:57:58;1.50;93.50
20171;DHT22;10245;51.344;6.620;2023-01-19T09:00:23;1.50;93.60
20171;DHT22;10245;51.344;6.620;2023-01-19T09:02:47;1.50;93.60
20171;DHT22;10245;51.344;6.620;2023-01-19T09:05:12;1.50;93.60
20171;DHT22;10245;51.344;6.620;2023-01-19T09:07:36;1.50;93.60
20171;DHT22;10245;51.344;6.620;2023-01-19T09:09:59;1.50;93.50
20171;DHT22;10245;51.344;6.620;2023-01-19T09:12:22;1.50;93.30
20171;DHT22;10245;51.344;6.620;2023-01-19T09:14:46;1.50;93.40
20171;DHT22;10245;51.344;6.620;2023-01-19T09:17:09;1.60;93.30
20171;DHT22;10245;51.344;6.620;2023-01-19T09:19:33;1.50;93.20
20171;DHT22;10245;51.344;6.620;2023-01-19T09:21:57;1.60;93.30
20171;DHT22;10245;51.344;6.620;2023-01-19T09:24:21;1.60;93.50
20171;DHT22;10245;51.344;6.620;2023-01-19T09:26:44;1.60;93.60
20171;DHT22;10245;51.344;6.620;2023-01-19T09:29:07;1.60;93.80
20171;DHT22;10245;51.344;6.620;2023-01-19T09:31:31;1.60;93.60
20171;DHT22;10245;51.344;6.620;2023-01-19T09:33:54;1.60;93.70
20171;DHT22;10245;51.344;6.620;2023-01-19T09:36:17;1.60;93.60
20171;DHT22;10245;51.344;6.620;2023-01-19T09:38:42;1.60;93.80
20171;DHT22;10245;51.344;6.620;2023-01-19T09:41:15;1.60;93.30
20171;DHT22;10245;51.344;6.620;2023-01-19T09:43:43;1.60;93.40
20171;DHT22;10245;51.344;6.620;2023-01-19T09:46:11;1.60;93.40
20171;DHT22;10245;51.344;6.620;2023-01-19T09:48:46;1.50;93.50
20171;DHT22;10245;51.344;6.620;2023-01-19T09:51:18;1.60;93.60
20171;DHT22;10245;51.344;6.620;2023-01-19T09:54:01;1.60;93.50
20171;DHT22;10245;51.344;6.620;2023-01-19T09:56:28;1.60;93.60
20171;DHT22;10245;51.344;6.620;2023-01-19T09:58:52;1.60;93.30
20171;DHT22;10245;51.344;6.620;2023-01-19T10:01:25;1.60;93.40
20171;DHT22;10245;51.344;6.620;2023-01-19T10:07:01;1.70;93.60
20171;DHT22;10245;51.344;6.620;2023-01-19T10:09:35;1.70;93.50
20171;DHT22;10245;51.344;6.620;2023-01-19T10:12:07;1.70;93.50
20171;DHT22;10245;51.344;6.620;2023-01-19T10:14:40;1.70;93.30
20171;DHT22;10245;51.344;6.620;2023-01-19T10:17:16;1.70;93.50
20171;DHT22;10245;51.344;6.620;2023-01-19T10:19:45;1.80;93.40
20171;DHT22;10245;51.344;6.620;2023-01-19T10:22:18;1.80;93.50
20171;DHT22;10245;51.344;6.620;2023-01-19T10:24:45;1.90;93.50
20171;DHT22;10245;51.344;6.620;2023-01-19T10:27:15;1.80;93.20
20171;DHT22;10245;51.344;6.620;2023-01-19T10:29:40;1.90;93.30
20171;DHT22;10245;51.344;6.620;2023-01-19T10:32:06;1.90;93.50
20171;DHT22;10245;51.344;6.620;2023-01-19T10:34:31;1.90;93.40
20171;DHT22;10245;51.344;6.620;2023-01-19T10:36:58;2.00;93.40
20171;DHT22;10245;51.344;6.620;2023-01-19T10:39:25;2.00;93.20
20171;DHT22;10245;51.344;6.620;2023-01-19T10:41:51;2.00;93.10
20171;DHT22;10245;51.344;6.620;2023-01-19T10:44:23;2.00;93.20
20171;DHT22;10245;51.344;6.620;2023-01-19T10:46:48;2.10;93.10
20171;DHT22;10245;51.344;6.620;2023-01-19T10:49:26;2.20;93.00
20171;DHT22;10245;51.344;6.620;2023-01-19T10:51:52;2.10;92.90
20171;DHT22;10245;51.344;6.620;2023-01-19T10:54:17;2.20;92.90
20171;DHT22;10245;51.344;6.620;2023-01-19T10:56:41;2.20;93.00
20171;DHT22;10245;51.344;6.620;2023-01-19T10:59:31;2.20;93.00
20171;DHT22;10245;51.344;6.620;2023-01-19T11:02:03;2.10;92.60
20171;DHT22;10245;51.344;6.620;2023-01-19T11:04:37;2.20;92.90
20171;DHT22;10245;51.344;6.620;2023-01-19T11:07:13;2.10;92.80
20171;DHT22;10245;51.344;6.620;2023-01-19T11:09:38;2.00;92.60
20171;DHT22;10245;51.344;6.620;2023-01-19T11:12:01;2.00;92.80
20171;DHT22;10245;51.344;6.620;2023-01-19T11:14:29;2.10;93.20
20171;DHT22;10245;51.344;6.620;2023-01-19T11:16:54;2.10;92.90
20171;DHT22;10245;51.344;6.620;2023-01-19T11:19:23;2.10;92.90
20171;DHT22;10245;51.344;6.620;2023-01-19T11:21:48;2.10;93.00
20171;DHT22;10245;51.344;6.620;2023-01-19T11:24:11;2.10;92.90
20171;DHT22;10245;51.344;6.620;2023-01-19T11:26:39;2.10;93.20
20171;DHT22;10245;51.344;6.620;2023-01-19T11:29:05;2.10;93.10
20171;DHT22;10245;51.344;6.620;2023-01-19T11:31:39;2.20;93.10
20171;DHT22;10245;51.344;6.620;2023-01-19T11:34:04;2.10;93.00
20171;DHT22;10245;51.344;6.620;2023-01-19T11:36:37;2.10;92.80
20171;DHT22;10245;51.344;6.620;2023-01-19T11:39:19;2.10;92.70
20171;DHT22;10245;51.344;6.620;2023-01-19T11:41:48;2.20;93.00
20171;DHT22;10245;51.344;6.620;2023-01-19T11:44:17;2.20;92.80
20171;DHT22;10245;51.344;6.620;2023-01-19T11:46:48;2.20;92.70
20171;DHT22;10245;51.344;6.620;2023-01-19T11:49:20;2.20;92.80
20171;DHT22;10245;51.344;6.620;2023-01-19T11:51:51;2.10;92.90
20171;DHT22;10245;51.344;6.620;2023-01-19T11:54:25;2.10;93.00
20171;DHT22;10245;51.344;6.620;2023-01-19T11:56:53;2.20;93.30
20171;DHT22;10245;51.344;6.620;2023-01-19T11:59:18;2.20;93.10
20171;DHT22;10245;51.344;6.620;2023-01-19T12:01:48;2.30;93.00
20171;DHT22;10245;51.344;6.620;2023-01-19T12:04:19;2.30;92.90
20171;DHT22;10245;51.344;6.620;2023-01-19T12:06:50;2.40;93.10
20171;DHT22;10245;51.344;6.620;2023-01-19T12:09:18;2.40;92.80
20171;DHT22;10245;51.344;6.620;2023-01-19T12:11:47;2.40;92.80
20171;DHT22;10245;51.344;6.620;2023-01-19T12:14:16;2.40;92.40
20171;DHT22;10245;51.344;6.620;2023-01-19T12:16:45;2.50;92.40
20171;DHT22;10245;51.344;6.620;2023-01-19T12:19:14;2.50;92.20
20171;DHT22;10245;51.344;6.620;2023-01-19T12:21:39;2.60;92.10
20171;DHT22;10245;51.344;6.620;2023-01-19T12:24:09;2.70;92.00
20171;DHT22;10245;51.344;6.620;2023-01-19T12:26:43;2.80;92.10
20171;DHT22;10245;51.344;6.620;2023-01-19T12:29:12;3.00;92.10
20171;DHT22;10245;51.344;6.620;2023-01-19T12:31:38;2.90;90.90
20171;DHT22;10245;51.344;6.620;2023-01-19T12:34:27;3.00;91.50
20171;DHT22;10245;51.344;6.620;2023-01-19T12:37:00;3.00;90.80
20171;DHT22;10245;51.344;6.620;2023-01-19T12:39:25;3.00;91.50
20171;DHT22;10245;51.344;6.620;2023-01-19T12:42:03;3.00;91.10
20171;DHT22;10245;51.344;6.620;2023-01-19T12:44:34;3.00;89.90
20171;DHT22;10245;51.344;6.620;2023-01-19T12:47:00;3.00;90.70
20171;DHT22;10245;51.344;6.620;2023-01-19T12:49:43;3.00;90.30
20171;DHT22;10245;51.344;6.620;2023-01-19T12:52:17;3.20;90.50
20171;DHT22;10245;51.344;6.620;2023-01-19T12:54:51;3.20;89.70
20171;DHT22;10245;51.344;6.620;2023-01-19T12:57:20;3.20;89.80
20171;DHT22;10245;51.344;6.620;2023-01-19T12:59:46;3.10;89.50
20171;DHT22;10245;51.344;6.620;2023-01-19T13:05:22;3.10;90.60
20171;DHT22;10245;51.344;6.620;2023-01-19T13:08:18;3.10;90.30
20171;DHT22;10245;51.344;6.620;2023-01-19T13:13:39;3.00;89.20
20171;DHT22;10245;51.344;6.620;2023-01-19T13:19:14;3.10;90.10
20171;DHT22;10245;51.344;6.620;2023-01-19T13:21:42;3.10;90.00
20171;DHT22;10245;51.344;6.620;2023-01-19T13:24:07;3.10;89.60
20171;DHT22;10245;51.344;6.620;2023-01-19T13:26:32;3.00;89.90
20171;DHT22;10245;51.344;6.620;2023-01-19T13:29:03;3.00;89.60
20171;DHT22;10245;51.344;6.620;2023-01-19T13:31:32;3.00;89.60
20171;DHT22;10245;51.344;6.620;2023-01-19T13:33:58;3.00;89.90
20171;DHT22;10245;51.344;6.620;2023-01-19T13:36:27;2.90;89.50
20171;DHT22;10245;51.344;6.620;2023-01-19T13:38:53;3.00;89.70
20171;DHT22;10245;51.344;6.620;2023-01-19T13:41:21;3.00;89.80
20171;DHT22;10245;51.344;6.620;2023-01-19T13:43:47;3.00;89.60
20171;DHT22;10245;51.344;6.620;2023-01-19T13:46:20;3.00;89.90
20171;DHT22;10245;51.344;6.620;2023-01-19T13:48:53;3.00;89.80
20171;DHT22;10245;51.344;6.620;2023-01-19T13:51:20;3.10;90.00
20171;DHT22;10245;51.344;6.620;2023-01-19T13:53:54;3.10;89.60
20171;DHT22;10245;51.344;6.620;2023-01-19T13:56:19;3.20;90.20
20171;DHT22;10245;51.344;6.620;2023-01-19T13:58:59;3.20;89.60
20171;DHT22;10245;51.344;6.620;2023-01-19T14:01:26;3.20;89.50
20171;DHT22;10245;51.344;6.620;2023-01-19T14:03:51;3.20;88.40
20171;DHT22;10245;51.344;6.620;2023-01-19T14:06:22;3.30;88.80
20171;DHT22;10245;51.344;6.620;2023-01-19T14:09:06;3.30;88.50
20171;DHT22;10245;51.344;6.620;2023-01-19T14:11:30;3.40;88.90
20171;DHT22;10245;51.344;6.620;2023-01-19T14:13:54;3.40;88.80
20171;DHT22;10245;51.344;6.620;2023-01-19T14:16:17;3.50;88.50
20171;DHT22;10245;51.344;6.620;2023-01-19T14:18:40;3.40;87.40
20171;DHT22;10245;51.344;6.620;2023-01-19T14:21:06;3.30;87.40
20171;DHT22;10245;51.344;6.620;2023-01-19T14:23:37;3.30;88.00
20171;DHT22;10245;51.344;6.620;2023-01-19T14:26:06;3.20;87.30
20171;DHT22;10245;51.344;6.620;2023-01-19T14:29:11;3.20;87.30
20171;DHT22;10245;51.344;6.620;2023-01-19T14:31:42;3.20;87.90
20171;DHT22;10245;51.344;6.620;2023-01-19T14:34:31;3.20;87.20
20171;DHT22;10245;51.344;6.620;2023-01-19T14:36:55;3.00;87.40
20171;DHT22;10245;51.344;6.620;2023-01-19T14:39:22;3.00;87.10
20171;DHT22;10245;51.344;6.620;2023-01-19T14:41:49;2.90;86.90
20171;DHT22;10245;51.344;6.620;2023-01-19T14:44:17;2.90;86.60
20171;DHT22;10245;51.344;6.620;2023-01-19T14:46:50;2.80;86.60
20171;DHT22;10245;51.344;6.620;2023-01-19T14:49:19;2.80;86.90
20171;DHT22;10245;51.344;6.620;2023-01-19T14:51:44;2.70;87.20
20171;DHT22;10245;51.344;6.620;2023-01-19T14:54:14;2.70;87.00
20171;DHT22;10245;51.344;6.620;2023-01-19T14:56:39;2.60;87.30
20171;DHT22;10245;51.344;6.620;2023-01-19T14:59:08;2.60;87.50
20171;DHT22;10245;51.344;6.620;2023-01-19T15:01:32;2.60;88.00
20171;DHT22;10245;51.344;6.620;2023-01-19T15:03:56;2.70;88.30
20171;DHT22;10245;51.344;6.620;2023-01-19T15:06:20;2.60;88.50
20171;DHT22;10245;51.344;6.620;2023-01-19T15:08:44;2.60;88.80
20171;DHT22;10245;51.344;6.620;2023-01-19T15:11:10;2.50;88.90
20171;DHT22;10245;51.344;6.620;2023-01-19T15:13:34;2.60;89.00
20171;DHT22;10245;51.344;6.620;2023-01-19T15:16:01;2.50;88.50
20171;DHT22;10245;51.344;6.620;2023-01-19T15:18:25;2.50;88.80
20171;DHT22;10245;51.344;6.620;2023-01-19T15:20:49;2.50;88.80
20171;DHT22;10245;51.344;6.620;2023-01-19T15:23:12;2.50;89.20
20171;DHT22;10245;51.344;6.620;2023-01-19T15:25:35;2.60;89.30
20171;DHT22;10245;51.344;6.620;2023-01-19T15:28:00;2.60;89.60
20171;DHT22;10245;51.344;6.620;2023-01-19T15:30:26;2.50;89.40
20171;DHT22;10245;51.344;6.620;2023-01-19T15:32:53;2.50;89.20
20171;DHT22;10245;51.344;6.620;2023-01-19T15:35:17;2.50;89.00
20171;DHT22;10245;51.344;6.620;2023-01-19T15:37:42;2.40;89.20
20171;DHT22;10245;51.344;6.620;2023-01-19T15:40:06;2.40;89.10
20171;DHT22;10245;51.344;6.620;2023-01-19T15:42:31;2.30;88.70
20171;DHT22;10245;51.344;6.620;2023-01-19T15:44:55;2.30;88.60
20171;DHT22;10245;51.344;6.620;2023-01-19T15:47:18;2.30;88.80
20171;DHT22;10245;51.344;6.620;2023-01-19T15:49:43;2.30;88.80
20171;DHT22;10245;51.344;6.620;2023-01-19T15:52:07;2.30;88.80
20171;DHT22;10245;51.344;6.620;2023-01-19T15:54:30;2.30;89.10